sensor_id;sensor_type;location;lat;lon;timestamp;temperature;humidity
3356;DHT22;1691;52.486;13.374;2023-10-19T00:00:41;7.70;88.40
3356;DHT22;1691;52.486;13.374;2023-10-19T00:03:12;7.70;88.40
3356;DHT22;1691;52.486;13.374;2023-10-19T00:05:39;7.70;88.40
3356;DHT22;1691;52.486;13.374;2023-10-19T00:08:08;7.60;88.60
3356;DHT22;1691;52.486;13.374;2023-10-19T00:10:53;7.60;88.60
3356;DHT22;1691;52.486;13.374;2023-10-19T00:13:31;7.60;88.60
3356;DHT22;1691;52.486;13.374;2023-10-19T00:15:59;7.60;88.60
3356;DHT22;1691;52.486;13.374;2023-10-19T00:18:26;7.60;88.60
3356;DHT22;1691;52.486;13.374;2023-10-19T00:20:54;7.60;88.60
3356;DHT22;1691;52.486;13.374;2023-10-19T00:23:38;7.60;88.60
3356;DHT22;1691;52.486;13.374;2023-10-19T00:26:06;7.60;88.60
3356;DHT22;1691;52.486;13.374;2023-10-19T00:28:41;7.60;88.60
3356;DHT22;1691;52.486;13.374;2023-10-19T00:31:12;7.60;88.60
3356;DHT22;1691;52.486;13.374;2023-10-19T00:33:40;7.60;88.60
3356;DHT22;1691;52.486;13.374;2023-10-19T00:36:08;7.60;88.60
3356;DHT22;1691;52.486;13.374;2023-10-19T00:38:47;7.60;88.60
3356;DHT22;1691;52.486;13.374;2023-10-19T00:41:26;7.60;88.60
3356;DHT22;1691;52.486;13.374;2023-10-19T00:44:00;7.50;88.60
3356;DHT22;1691;52.486;13.374;2023-10-19T00:46:34;7.50;88.60
3356;DHT22;1691;52.486;13.374;2023-10-19T00:49:12;7.50;88.80
3356;DHT22;1691;52.486;13.374;2023-10-19T00:51:44;7.50;88.80
3356;DHT22;1691;52.486;13.374;2023-10-19T00:54:34;7.50;88.80
3356;DHT22;1691;52.486;13.374;2023-10-19T00:57:09;7.50;89.00
3356;DHT22;1691;52.486;13.374;2023-10-19T00:59:41;7.50;89.00
3356;DHT22;1691;52.486;13.374;2023-10-19T01:02:39;7.50;89.00
3356;DHT22;1691;52.486;13.374;2023-10-19T01:05:13;7.50;89.00
3356;DHT22;1691;52.486;13.374;2023-10-19T01:07:40;7.50;89.20
3356;DHT22;1691;52.486;13.374;2023-10-19T01:10:09;7.50;89.20
3356;DHT22;1691;52.486;13.374;2023-10-19T01:12:39;7.50;89.20
3356;DHT22;1691;52.486;13.374;2023-10-19T01:15:15;7.40;89.30
3356;DHT22;1691;52.486;13.374;2023-10-19T01:17:45;7.40;89.30
3356;DHT22;1691;52.486;13.374;2023-10-19T01:20:37;7.40;89.30
3356;DHT22;1691;52.486;13.374;2023-10-19T01:23:21;7.40;89.30
3356;DHT22;1691;52.486;13.374;2023-10-19T01:25:59;7.40;89.50
3356;DHT22;1691;52.486;13.374;2023-10-19T01:28:31;7.40;89.70
3356;DHT22;1691;52.486;13.374;2023-10-19T01:31:09;7.40;89.70
3356;DHT22;1691;52.486;13.374;2023-10-19T01:33:44;7.40;89.90
3356;DHT22;1691;52.486;13.374;2023-10-19T01:36:12;7.40;89.90
3356;DHT22;1691;52.486;13.374;2023-10-19T01:38:49;7.40;89.90
3356;DHT22;1691;52.486;13.374;2023-10-19T01:41:28;7.40;89.90
3356;DHT22;1691;52.486;13.374;2023-10-19T01:43:57;7.40;89.90
3356;DHT22;1691;52.486;13.374;2023-10-19T01:46:32;7.40;90.10
3356;DHT22;1691;52.486;13.374;2023-10-19T01:49:03;7.40;90.10
3356;DHT22;1691;52.486;13.374;2023-10-19T01:51:33;7.40;90.10
3356;DHT22;1691;52.486;13.374;2023-10-19T01:54:06;7.40;90.10
3356;DHT22;1691;52.486;13.374;2023-10-19T01:56:34;7.40;90.10
3356;DHT22;1691;52.486;13.374;2023-10-19T01:59:03;7.40;90.10
3356;DHT22;1691;52.486;13.374;2023-10-19T02:01:31;7.40;90.10
3356;DHT22;1691;52.486;13.374;2023-10-19T02:04:03;7.40;90.10
3356;DHT22;1691;52.486;13.374;2023-10-19T02:06:34;7.30;90.20
3356;DHT22;1691;52.486;13.374;2023-10-19T02:09:12;7.30;90.20
3356;DHT22;1691;52.486;13.374;2023-10-19T02:11:56;7.30;90.20
3356;DHT22;1691;52.486;13.374;2023-10-19T02:14:26;7.30;90.20
3356;DHT22;1691;52.486;13.374;2023-10-19T02:16:58;7.30;90.30
3356;DHT22;1691;52.486;13.374;2023-10-19T02:19:28;7.30;90.30
3356;DHT22;1691;52.486;13.374;2023-10-19T02:22:00;7.40;90.30
3356;DHT22;1691;52.486;13.374;2023-10-19T02:24:35;7.40;90.30
3356;DHT22;1691;52.486;13.374;2023-10-19T02:27:03;7.40;90.30
3356;DHT22;1691;52.486;13.374;2023-10-19T02:29:33;7.40;90.20
3356;DHT22;1691;52.486;13.374;2023-10-19T02:32:02;7.40;90.20
3356;DHT22;1691;52.486;13.374;2023-10-19T02:34:31;7.40;90.20
3356;DHT22;1691;52.486;13.374;2023-10-19T02:36:58;7.40;90.20
3356;DHT22;1691;52.486;13.374;2023-10-19T02:39:25;7.40;90.30
3356;DHT22;1691;52.486;13.374;2023-10-19T02:41:55;7.40;90.30
3356;DHT22;1691;52.486;13.374;2023-10-19T02:44:23;7.40;90.30
3356;DHT22;1691;52.486;13.374;2023-10-19T02:46:56;7.50;90.30
3356;DHT22;1691;52.486;13.374;2023-10-19T02:49:27;7.50;90.20
3356;DHT22;1691;52.486;13.374;2023-10-19T02:51:57;7.50;90.20
3356;DHT22;1691;52.486;13.374;2023-10-19T02:54:31;7.50;90.20
3356;DHT22;1691;52.486;13.374;2023-10-19T02:57:02;7.50;90.20
3356;DHT22;1691;52.486;13.374;2023-10-19T02:59:33;7.50;90.20
3356;DHT22;1691;52.486;13.374;2023-10-19T03:02:01;7.50;90.10
3356;DHT22;1691;52.486;13.374;2023-10-19T03:04:38;7.60;90.10
3356;DHT22;1691;52.486;13.374;2023-10-19T03:07:06;7.50;90.10
3356;DHT22;1691;52.486;13.374;2023-10-19T03:09:39;7.60;90.10
3356;DHT22;1691;52.486;13.374;2023-10-19T03:12:06;7.60;90.10
3356;DHT22;1691;52.486;13.374;2023-10-19T03:14:37;7.60;90.10
3356;DHT22;1691;52.486;13.374;2023-10-19T03:17:04;7.60;90.10
3356;DHT22;1691;52.486;13.374;2023-10-19T03:19:35;7.60;90.10
3356;DHT22;1691;52.486;13.374;2023-10-19T03:22:02;7.60;90.10
3356;DHT22;1691;52.486;13.374;2023-10-19T03:24:33;7.60;90.10
3356;DHT22;1691;52.486;13.374;2023-10-19T03:27:08;7.60;89.90
3356;DHT22;1691;52.486;13.374;2023-10-19T03:29:50;7.60;90.10
3356;DHT22;1691;52.486;13.374;2023-10-19T03:32:23;7.60;89.90
3356;DHT22;1691;52.486;13.374;2023-10-19T03:34:56;7.70;89.70
3356;DHT22;1691;52.486;13.374;2023-10-19T03:37:24;7.70;89.70
3356;DHT22;1691;52.486;13.374;2023-10-19T03:39:53;7.70;89.70
3356;DHT22;1691;52.486;13.374;2023-10-19T03:42:24;7.70;89.70
3356;DHT22;1691;52.486;13.374;2023-10-19T03:45:00;7.70;89.70
3356;DHT22;1691;52.486;13.374;2023-10-19T03:47:29;7.70;89.70
3356;DHT22;1691;52.486;13.374;2023-10-19T03:50:03;7.70;89.70
3356;DHT22;1691;52.486;13.374;2023-10-19T03:52:37;7.70;89.50
3356;DHT22;1691;52.486;13.374;2023-10-19T03:55:05;7.70;89.50
3356;DHT22;1691;52.486;13.374;2023-10-19T03:57:38;7.70;89.50
3356;DHT22;1691;52.486;13.374;2023-10-19T04:00:14;7.70;89.50
3356;DHT22;1691;52.486;13.374;2023-10-19T04:02:43;7.70;89.50
3356;DHT22;1691;52.486;13.374;2023-10-19T04:05:10;7.70;89.50
3356;DHT22;1691;52.486;13.374;2023-10-19T04:07:41;7.70;89.70
3356;DHT22;1691;52.486;13.374;2023-10-19T04:10:09;7.70;89.50
3356;DHT22;1691;52.486;13.374;2023-10-19T04:12:40;7.70;89.70
3356;DHT22;1691;52.486;13.374;2023-10-19T04:15:11;7.70;89.70
3356;DHT22;1691;52.486;13.374;2023-10-19T04:17:44;7.70;89.70
3356;DHT22;1691;52.486;13.374;2023-10-19T04:20:17;7.70;89.70
3356;DHT22;1691;52.486;13.374;2023-10-19T04:22:49;7.70;89.70
3356;DHT22;1691;52.486;13.374;2023-10-19T04:25:18;7.60;89.90
3356;DHT22;1691;52.486;13.374;2023-10-19T04:27:47;7.60;90.10
3356;DHT22;1691;52.486;13.374;2023-10-19T04:30:16;7.60;90.10
3356;DHT22;1691;52.486;13.374;2023-10-19T04:32:46;7.60;90.10
3356;DHT22;1691;52.486;13.374;2023-10-19T04:35:13;7.60;90.10
3356;DHT22;1691;52.486;13.374;2023-10-19T04:37:41;7.60;90.10
3356;DHT22;1691;52.486;13.374;2023-10-19T04:40:10;7.70;89.90
3356;DHT22;1691;52.486;13.374;2023-10-19T04:42:38;7.70;89.90
3356;DHT22;1691;52.486;13.374;2023-10-19T04:45:06;7.60;90.10
3356;DHT22;1691;52.486;13.374;2023-10-19T04:47:33;7.60;90.10
3356;DHT22;1691;52.486;13.374;2023-10-19T04:50:03;7.60;90.10
3356;DHT22;1691;52.486;13.374;2023-10-19T04:52:31;7.60;90.10
3356;DHT22;1691;52.486;13.374;2023-10-19T04:54:59;7.60;90.20
3356;DHT22;1691;52.486;13.374;2023-10-19T04:57:28;7.60;90.20
3356;DHT22;1691;52.486;13.374;2023-10-19T04:59:55;7.60;90.20
3356;DHT22;1691;52.486;13.374;2023-10-19T05:02:23;7.60;90.20
3356;DHT22;1691;52.486;13.374;2023-10-19T05:04:50;7.60;90.20
3356;DHT22;1691;52.486;13.374;2023-10-19T05:07:17;7.50;90.20
3356;DHT22;1691;52.486;13.374;2023-10-19T05:09:45;7.50;90.20
3356;DHT22;1691;52.486;13.374;2023-10-19T05:12:16;7.50;90.20
3356;DHT22;1691;52.486;13.374;2023-10-19T05:14:43;7.50;90.30
3356;DHT22;1691;52.486;13.374;2023-10-19T05:17:10;7.50;90.30
3356;DHT22;1691;52.486;13.374;2023-10-19T05:19:39;7.50;90.40
3356;DHT22;1691;52.486;13.374;2023-10-19T05:22:09;7.40;90.40
3356;DHT22;1691;52.486;13.374;2023-10-19T05:24:36;7.40;90.40
3356;DHT22;1691;52.486;13.374;2023-10-19T05:27:03;7.40;90.50
3356;DHT22;1691;52.486;13.374;2023-10-19T05:29:34;7.40;90.50
3356;DHT22;1691;52.486;13.374;2023-10-19T05:32:01;7.40;90.60
3356;DHT22;1691;52.486;13.374;2023-10-19T05:34:29;7.40;90.70
3356;DHT22;1691;52.486;13.374;2023-10-19T05:36:59;7.40;90.70
3356;DHT22;1691;52.486;13.374;2023-10-19T05:39:29;7.40;90.70
3356;DHT22;1691;52.486;13.374;2023-10-19T05:41:58;7.40;90.80
3356;DHT22;1691;52.486;13.374;2023-10-19T05:44:29;7.40;90.80
3356;DHT22;1691;52.486;13.374;2023-10-19T05:46:58;7.40;90.90
3356;DHT22;1691;52.486;13.374;2023-10-19T05:49:26;7.30;91.00
3356;DHT22;1691;52.486;13.374;2023-10-19T05:51:56;7.30;91.00
3356;DHT22;1691;52.486;13.374;2023-10-19T05:54:23;7.30;91.10
3356;DHT22;1691;52.486;13.374;2023-10-19T05:56:51;7.30;91.20
3356;DHT22;1691;52.486;13.374;2023-10-19T05:59:19;7.20;91.40
3356;DHT22;1691;52.486;13.374;2023-10-19T06:01:47;7.20;91.60
3356;DHT22;1691;52.486;13.374;2023-10-19T06:04:15;7.10;91.80
3356;DHT22;1691;52.486;13.374;2023-10-19T06:06:47;7.10;92.00
3356;DHT22;1691;52.486;13.374;2023-10-19T06:09:16;7.00;92.10
3356;DHT22;1691;52.486;13.374;2023-10-19T06:11:44;7.00;92.30
3356;DHT22;1691;52.486;13.374;2023-10-19T06:14:12;7.00;92.60
3356;DHT22;1691;52.486;13.374;2023-10-19T06:16:40;6.90;92.70
3356;DHT22;1691;52.486;13.374;2023-10-19T06:19:07;6.90;92.90
3356;DHT22;1691;52.486;13.374;2023-10-19T06:21:36;6.80;93.10
3356;DHT22;1691;52.486;13.374;2023-10-19T06:24:03;6.70;93.40
3356;DHT22;1691;52.486;13.374;2023-10-19T06:26:30;6.70;93.70
3356;DHT22;1691;52.486;13.374;2023-10-19T06:28:57;6.60;94.10
3356;DHT22;1691;52.486;13.374;2023-10-19T06:31:29;6.50;94.40
3356;DHT22;1691;52.486;13.374;2023-10-19T06:33:57;6.50;94.80
3356;DHT22;1691;52.486;13.374;2023-10-19T06:36:25;6.40;95.10
3356;DHT22;1691;52.486;13.374;2023-10-19T06:38:55;6.40;95.40
3356;DHT22;1691;52.486;13.374;2023-10-19T06:41:23;6.40;95.70
3356;DHT22;1691;52.486;13.374;2023-10-19T06:43:50;6.40;95.90
3356;DHT22;1691;52.486;13.374;2023-10-19T06:46:18;6.40;96.30
3356;DHT22;1691;52.486;13.374;2023-10-19T06:48:45;6.50;96.50
3356;DHT22;1691;52.486;13.374;2023-10-19T06:51:13;6.50;96.60
3356;DHT22;1691;52.486;13.374;2023-10-19T06:53:43;6.50;96.70
3356;DHT22;1691;52.486;13.374;2023-10-19T06:56:11;6.50;96.90
3356;DHT22;1691;52.486;13.374;2023-10-19T06:58:38;6.50;96.90
3356;DHT22;1691;52.486;13.374;2023-10-19T07:01:07;6.50;97.00
3356;DHT22;1691;52.486;13.374;2023-10-19T07:03:36;6.50;97.10
3356;DHT22;1691;52.486;13.374;2023-10-19T07:06:03;6.60;97.30
3356;DHT22;1691;52.486;13.374;2023-10-19T07:08:37;6.60;97.40
3356;DHT22;1691;52.486;13.374;2023-10-19T07:11:04;6.60;97.70
3356;DHT22;1691;52.486;13.374;2023-10-19T07:13:32;6.60;97.80
3356;DHT22;1691;52.486;13.374;2023-10-19T07:16:01;6.60;97.80
3356;DHT22;1691;52.486;13.374;2023-10-19T07:18:30;6.60;97.90
3356;DHT22;1691;52.486;13.374;2023-10-19T07:20:57;6.70;98.10
3356;DHT22;1691;52.486;13.374;2023-10-19T07:23:30;6.70;98.10
3356;DHT22;1691;52.486;13.374;2023-10-19T07:25:58;6.80;98.20
3356;DHT22;1691;52.486;13.374;2023-10-19T07:28:29;6.80;98.20
3356;DHT22;1691;52.486;13.374;2023-10-19T07:30:58;6.90;98.30
3356;DHT22;1691;52.486;13.374;2023-10-19T07:33:26;6.90;98.30
3356;DHT22;1691;52.486;13.374;2023-10-19T07:35:55;6.90;98.30
3356;DHT22;1691;52.486;13.374;2023-10-19T07:38:23;6.90;98.40
3356;DHT22;1691;52.486;13.374;2023-10-19T07:40:50;7.00;98.50
3356;DHT22;1691;52.486;13.374;2023-10-19T07:43:21;7.00;98.50
3356;DHT22;1691;52.486;13.374;2023-10-19T07:45:50;7.10;98.50
3356;DHT22;1691;52.486;13.374;2023-10-19T07:48:19;7.10;98.60
3356;DHT22;1691;52.486;13.374;2023-10-19T07:50:46;7.20;98.50
3356;DHT22;1691;52.486;13.374;2023-10-19T07:53:13;7.30;98.50
3356;DHT22;1691;52.486;13.374;2023-10-19T07:55:41;7.30;98.50
3356;DHT22;1691;52.486;13.374;2023-10-19T07:58:09;7.40;98.50
3356;DHT22;1691;52.486;13.374;2023-10-19T08:00:37;7.40;98.50
3356;DHT22;1691;52.486;13.374;2023-10-19T08:03:05;7.40;98.50
3356;DHT22;1691;52.486;13.374;2023-10-19T08:05:33;7.50;98.40
3356;DHT22;1691;52.486;13.374;2023-10-19T08:08:01;7.50;98.40
3356;DHT22;1691;52.486;13.374;2023-10-19T08:10:31;7.50;98.50
3356;DHT22;1691;52.486;13.374;2023-10-19T08:12:58;7.50;98.40
3356;DHT22;1691;52.486;13.374;2023-10-19T08:15:27;7.50;98.40
3356;DHT22;1691;52.486;13.374;2023-10-19T08:17:57;7.50;98.50
3356;DHT22;1691;52.486;13.374;2023-10-19T08:20:25;7.60;98.50
3356;DHT22;1691;52.486;13.374;2023-10-19T08:22:59;7.60;98.50
3356;DHT22;1691;52.486;13.374;2023-10-19T08:25:29;7.70;98.50
3356;DHT22;1691;52.486;13.374;2023-10-19T08:27:59;7.80;98.50
3356;DHT22;1691;52.486;13.374;2023-10-19T08:30:30;7.80;98.50
3356;DHT22;1691;52.486;13.374;2023-10-19T08:32:57;7.80;98.40
3356;DHT22;1691;52.486;13.374;2023-10-19T08:35:26;7.90;98.40
3356;DHT22;1691;52.486;13.374;2023-10-19T08:37:54;7.90;98.30
3356;DHT22;1691;52.486;13.374;2023-10-19T08:40:26;8.00;98.40
3356;DHT22;1691;52.486;13.374;2023-10-19T08:42:57;8.00;98.30
3356;DHT22;1691;52.486;13.374;2023-10-19T08:45:25;8.00;98.30
3356;DHT22;1691;52.486;13.374;2023-10-19T08:47:58;8.10;98.30
3356;DHT22;1691;52.486;13.374;2023-10-19T08:50:34;8.10;98.20
3356;DHT22;1691;52.486;13.374;2023-10-19T08:53:02;8.10;98.20
3356;DHT22;1691;52.486;13.374;2023-10-19T08:55:31;8.10;98.20
3356;DHT22;1691;52.486;13.374;2023-10-19T08:58:16;8.10;98.20
3356;DHT22;1691;52.486;13.374;2023-10-19T09:00:50;8.10;98.20
3356;DHT22;1691;52.486;13.374;2023-10-19T09:03:23;8.20;98.10
3356;DHT22;1691;52.486;13.374;2023-10-19T09:05:53;8.20;98.20
3356;DHT22;1691;52.486;13.374;2023-10-19T09:08:21;8.20;98.30
3356;DHT22;1691;52.486;13.374;2023-10-19T09:10:50;8.30;98.30
3356;DHT22;1691;52.486;13.374;2023-10-19T09:13:22;8.30;98.30
3356;DHT22;1691;52.486;13.374;2023-10-19T09:15:51;8.40;98.30
3356;DHT22;1691;52.486;13.374;2023-10-19T09:18:24;8.40;98.30
3356;DHT22;1691;52.486;13.374;2023-10-19T09:20:55;8.50;98.30
3356;DHT22;1691;52.486;13.374;2023-10-19T09:23:35;8.50;98.30
3356;DHT22;1691;52.486;13.374;2023-10-19T09:26:04;8.60;98.30
3356;DHT22;1691;52.486;13.374;2023-10-19T09:28:36;8.60;98.30
3356;DHT22;1691;52.486;13.374;2023-10-19T09:31:06;8.70;98.30
3356;DHT22;1691;52.486;13.374;2023-10-19T09:33:40;8.70;98.20
3356;DHT22;1691;52.486;13.374;2023-10-19T09:36:09;8.70;98.20
3356;DHT22;1691;52.486;13.374;2023-10-19T09:38:49;8.80;98.20
3356;DHT22;1691;52.486;13.374;2023-10-19T09:41:22;8.80;98.10
3356;DHT22;1691;52.486;13.374;2023-10-19T09:43:58;8.80;98.20
3356;DHT22;1691;52.486;13.374;2023-10-19T09:46:32;8.80;98.00
3356;DHT22;1691;52.486;13.374;2023-10-19T09:49:04;8.80;98.00
3356;DHT22;1691;52.486;13.374;2023-10-19T09:51:32;8.80;97.90
3356;DHT22;1691;52.486;13.374;2023-10-19T09:54:07;8.80;97.80
3356;DHT22;1691;52.486;13.374;2023-10-19T09:56:43;8.80;97.80
3356;DHT22;1691;52.486;13.374;2023-10-19T09:59:23;8.80;97.80
3356;DHT22;1691;52.486;13.374;2023-10-19T10:02:08;8.80;97.90
3356;DHT22;1691;52.486;13.374;2023-10-19T10:04:44;8.80;97.90
3356;DHT22;1691;52.486;13.374;2023-10-19T10:07:13;8.80;97.80
3356;DHT22;1691;52.486;13.374;2023-10-19T10:09:48;8.80;97.90
3356;DHT22;1691;52.486;13.374;2023-10-19T10:12:22;8.80;97.90
3356;DHT22;1691;52.486;13.374;2023-10-19T10:14:57;8.80;97.90
3356;DHT22;1691;52.486;13.374;2023-10-19T10:17:36;8.80;97.90
3356;DHT22;1691;52.486;13.374;2023-10-19T10:22:41;8.90;98.00
3356;DHT22;1691;52.486;13.374;2023-10-19T10:25:28;8.90;98.00
3356;DHT22;1691;52.486;13.374;2023-10-19T10:27:56;8.90;97.80
3356;DHT22;1691;52.486;13.374;2023-10-19T10:30:24;8.80;97.70
3356;DHT22;1691;52.486;13.374;2023-10-19T10:32:53;8.80;97.90
3356;DHT22;1691;52.486;13.374;2023-10-19T10:38:19;8.60;98.20
3356;DHT22;1691;52.486;13.374;2023-10-19T10:40:47;8.50;98.40
3356;DHT22;1691;52.486;13.374;2023-10-19T10:43:16;8.40;98.60
3356;DHT22;1691;52.486;13.374;2023-10-19T10:45:45;8.40;98.70
3356;DHT22;1691;52.486;13.374;2023-10-19T10:48:16;8.30;98.70
3356;DHT22;1691;52.486;13.374;2023-10-19T10:50:46;8.30;98.70
3356;DHT22;1691;52.486;13.374;2023-10-19T10:53:14;8.20;98.70
3356;DHT22;1691;52.486;13.374;2023-10-19T10:55:45;8.20;98.70
3356;DHT22;1691;52.486;13.374;2023-10-19T10:58:19;8.30;98.70
3356;DHT22;1691;52.486;13.374;2023-10-19T11:00:47;8.30;98.70
3356;DHT22;1691;52.486;13.374;2023-10-19T11:03:15;8.30;98.70
3356;DHT22;1691;52.486;13.374;2023-10-19T11:05:43;8.30;98.70
3356;DHT22;1691;52.486;13.374;2023-10-19T11:08:14;8.30;98.70
3356;DHT22;1691;52.486;13.374;2023-10-19T11:10:48;8.20;98.70
3356;DHT22;1691;52.486;13.374;2023-10-19T11:13:18;8.20;98.70
3356;DHT22;1691;52.486;13.374;2023-10-19T11:15:54;8.20;98.70
3356;DHT22;1691;52.486;13.374;2023-10-19T11:18:36;8.20;98.70
3356;DHT22;1691;52.486;13.374;2023-10-19T11:21:11;8.20;98.70
3356;DHT22;1691;52.486;13.374;2023-10-19T11:23:40;8.10;98.70
3356;DHT22;1691;52.486;13.374;2023-10-19T11:26:09;8.00;98.70
3356;DHT22;1691;52.486;13.374;2023-10-19T11:28:41;7.90;98.70
3356;DHT22;1691;52.486;13.374;2023-10-19T11:31:21;7.90;98.70
3356;DHT22;1691;52.486;13.374;2023-10-19T11:33:53;7.80;98.70
3356;DHT22;1691;52.486;13.374;2023-10-19T11:36:25;7.80;98.70
3356;DHT22;1691;52.486;13.374;2023-10-19T11:38:53;7.70;98.70
3356;DHT22;1691;52.486;13.374;2023-10-19T11:41:20;7.70;98.70
3356;DHT22;1691;52.486;13.374;2023-10-19T11:43:49;7.70;98.70
3356;DHT22;1691;52.486;13.374;2023-10-19T11:46:17;7.70;98.70
3356;DHT22;1691;52.486;13.374;2023-10-19T11:48:45;7.70;98.70
3356;DHT22;1691;52.486;13.374;2023-10-19T11:51:13;7.80;98.70
3356;DHT22;1691;52.486;13.374;2023-10-19T11:53:42;7.80;98.70
3356;DHT22;1691;52.486;13.374;2023-10-19T11:56:11;7.80;98.70
3356;DHT22;1691;52.486;13.374;2023-10-19T11:58:40;7.80;98.70
3356;DHT22;1691;52.486;13.374;2023-10-19T12:01:10;7.70;98.70
3356;DHT22;1691;52.486;13.374;2023-10-19T12:03:41;7.70;98.70
3356;DHT22;1691;52.486;13.374;2023-10-19T12:06:11;7.70;98.70
3356;DHT22;1691;52.486;13.374;2023-10-19T12:08:39;7.70;98.70
3356;DHT22;1691;52.486;13.374;2023-10-19T12:11:07;7.70;98.70
3356;DHT22;1691;52.486;13.374;2023-10-19T12:13:43;7.70;98.70
3356;DHT22;1691;52.486;13.374;2023-10-19T12:16:12;7.70;98.70
3356;DHT22;1691;52.486;13.374;2023-10-19T12:18:40;7.70;98.70
3356;DHT22;1691;52.486;13.374;2023-10-19T12:21:09;7.80;98.70
3356;DHT22;1691;52.486;13.374;2023-10-19T12:23:40;7.80;98.70
3356;DHT22;1691;52.486;13.374;2023-10-19T12:26:08;7.80;98.70
3356;DHT22;1691;52.486;13.374;2023-10-19T12:28:39;7.90;98.70
3356;DHT22;1691;52.486;13.374;2023-10-19T12:31:08;7.90;98.70
3356;DHT22;1691;52.486;13.374;2023-10-19T12:33:36;7.90;98.70
3356;DHT22;1691;52.486;13.374;2023-10-19T12:36:05;8.00;98.70
3356;DHT22;1691;52.486;13.374;2023-10-19T12:38:53;8.00;98.70
3356;DHT22;1691;52.486;13.374;2023-10-19T12:41:24;8.10;98.70
3356;DHT22;1691;52.486;13.374;2023-10-19T12:43:51;8.10;98.70
3356;DHT22;1691;52.486;13.374;2023-10-19T12:46:19;8.10;98.70
3356;DHT22;1691;52.486;13.374;2023-10-19T12:48:51;8.10;98.70
3356;DHT22;1691;52.486;13.374;2023-10-19T12:51:18;8.10;98.70
3356;DHT22;1691;52.486;13.374;2023-10-19T12:53:53;8.20;98.70
3356;DHT22;1691;52.486;13.374;2023-10-19T12:56:22;8.20;98.70
3356;DHT22;1691;52.486;13.374;2023-10-19T12:58:56;8.20;98.70
3356;DHT22;1691;52.486;13.374;2023-10-19T13:01:23;8.20;98.70
3356;DHT22;1691;52.486;13.374;2023-10-19T13:03:50;8.20;98.70
3356;DHT22;1691;52.486;13.374;2023-10-19T13:06:18;8.20;98.70
3356;DHT22;1691;52.486;13.374;2023-10-19T13:08:46;8.20;98.70
3356;DHT22;1691;52.486;13.374;2023-10-19T13:11:14;8.20;98.70
3356;DHT22;1691;52.486;13.374;2023-10-19T13:13:44;8.20;98.70
3356;DHT22;1691;52.486;13.374;2023-10-19T13:16:12;8.10;98.70
3356;DHT22;1691;52.486;13.374;2023-10-19T13:18:41;8.10;98.70
3356;DHT22;1691;52.486;13.374;2023-10-19T13:21:08;8.10;98.70
3356;DHT22;1691;52.486;13.374;2023-10-19T13:23:44;8.10;98.70
3356;DHT22;1691;52.486;13.374;2023-10-19T13:26:12;8.10;98.70
3356;DHT22;1691;52.486;13.374;2023-10-19T13:28:43;8.10;98.70
3356;DHT22;1691;52.486;13.374;2023-10-19T13:31:11;8.10;98.70
3356;DHT22;1691;52.486;13.374;2023-10-19T13:33:41;8.10;98.70
3356;DHT22;1691;52.486;13.374;2023-10-19T13:36:08;8.00;98.70
3356;DHT22;1691;52.486;13.374;2023-10-19T13:38:35;7.90;98.70
3356;DHT22;1691;52.486;13.374;2023-10-19T13:41:03;7.90;98.70
3356;DHT22;1691;52.486;13.374;2023-10-19T13:43:39;7.90;98.70
3356;DHT22;1691;52.486;13.374;2023-10-19T13:46:06;7.90;98.70
3356;DHT22;1691;52.486;13.374;2023-10-19T13:48:34;7.80;98.70
3356;DHT22;1691;52.486;13.374;2023-10-19T13:51:01;7.80;98.70
3356;DHT22;1691;52.486;13.374;2023-10-19T13:53:39;7.80;98.70
3356;DHT22;1691;52.486;13.374;2023-10-19T13:56:11;7.80;98.70
3356;DHT22;1691;52.486;13.374;2023-10-19T13:58:38;7.80;98.70
3356;DHT22;1691;52.486;13.374;2023-10-19T14:01:09;7.80;98.70
3356;DHT22;1691;52.486;13.374;2023-10-19T14:03:40;7.80;98.70
3356;DHT22;1691;52.486;13.374;2023-10-19T14:06:14;7.80;98.70
3356;DHT22;1691;52.486;13.374;2023-10-19T14:08:42;7.80;98.70
3356;DHT22;1691;52.486;13.374;2023-10-19T14:11:11;7.80;98.70
3356;DHT22;1691;52.486;13.374;2023-10-19T14:13:39;7.90;98.70
3356;DHT22;1691;52.486;13.374;2023-10-19T14:16:09;7.90;98.70
3356;DHT22;1691;52.486;13.374;2023-10-19T14:18:37;7.90;98.70
3356;DHT22;1691;52.486;13.374;2023-10-19T14:21:15;7.90;98.70
3356;DHT22;1691;52.486;13.374;2023-10-19T14:23:43;7.90;98.70
3356;DHT22;1691;52.486;13.374;2023-10-19T14:26:12;7.90;98.70
3356;DHT22;1691;52.486;13.374;2023-10-19T14:28:40;7.90;98.70
3356;DHT22;1691;52.486;13.374;2023-10-19T14:31:08;7.90;98.70
3356;DHT22;1691;52.486;13.374;2023-10-19T14:33:35;7.90;98.70
3356;DHT22;1691;52.486;13.374;2023-10-19T14:36:06;7.80;98.70
3356;DHT22;1691;52.486;13.374;2023-10-19T14:38:34;7.80;98.70
3356;DHT22;1691;52.486;13.374;2023-10-19T14:41:03;7.80;98.70
3356;DHT22;1691;52.486;13.374;2023-10-19T14:43:30;7.70;98.70
3356;DHT22;1691;52.486;13.374;2023-10-19T14:45:57;7.70;98.70
3356;DHT22;1691;52.486;13.374;2023-10-19T14:48:24;7.80;98.70
3356;DHT22;1691;52.486;13.374;2023-10-19T14:50:52;7.80;98.70
3356;DHT22;1691;52.486;13.374;2023-10-19T14:53:22;7.80;98.70
3356;DHT22;1691;52.486;13.374;2023-10-19T14:55:49;7.80;98.70
3356;DHT22;1691;52.486;13.374;2023-10-19T14:58:17;7.80;98.70
3356;DHT22;1691;52.486;13.374;2023-10-19T15:00:44;7.80;98.70
3356;DHT22;1691;52.486;13.374;2023-10-19T15:03:13;7.90;98.70
3356;DHT22;1691;52.486;13.374;2023-10-19T15:05:43;7.90;98.70
3356;DHT22;1691;52.486;13.374;2023-10-19T15:08:10;7.90;98.70
3356;DHT22;1691;52.486;13.374;2023-10-19T15:10:41;7.90;98.70
3356;DHT22;1691;52.486;13.374;2023-10-19T15:13:09;7.90;98.70
3356;DHT22;1691;52.486;13.374;2023-10-19T15:15:36;7.90;98.70
3356;DHT22;1691;52.486;13.374;2023-10-19T15:18:03;7.80;98.70
3356;DHT22;1691;52.486;13.374;2023-10-19T15:20:31;7.80;98.70
3356;DHT22;1691;52.486;13.374;2023-10-19T15:22:59;7.80;98.70
3356;DHT22;1691;52.486;13.374;2023-10-19T15:25:26;7.90;98.70
3356;DHT22;1691;52.486;13.374;2023-10-19T15:27:54;7.90;98.70
3356;DHT22;1691;52.486;13.374;2023-10-19T15:30:22;7.90;98.70
3356;DHT22;1691;52.486;13.374;2023-10-19T15:32:51;7.80;98.70
3356;DHT22;1691;52.486;13.374;2023-10-19T15:35:20;7.80;98.70
3356;DHT22;1691;52.486;13.374;2023-10-19T15:37:53;7.80;98.70
3356;DHT22;1691;52.486;13.374;2023-10-19T15:40:24;7.80;98.70
3356;DHT22;1691;52.486;13.374;2023-10-19T15:42:52;7.80;98.70
3356;DHT22;1691;52.486;13.374;2023-10-19T15:45:21;7.80;98.70
3356;DHT22;1691;52.486;13.374;2023-10-19T15:47:52;7.80;98.70
3356;DHT22;1691;52.486;13.374;2023-10-19T15:50:22;7.80;98.70
3356;DHT22;1691;52.486;13.374;2023-10-19T15:52:50;7.80;98.70
3356;DHT22;1691;52.486;13.374;2023-10-19T15:55:19;7.80;98.70
3356;DHT22;1691;52.486;13.374;2023-10-19T15:57:49;7.90;98.70
3356;DHT22;1691;52.486;13.374;2023-10-19T16:00:21;7.90;98.70
3356;DHT22;1691;52.486;13.374;2023-10-19T16:02:49;7.90;98.70
3356;DHT22;1691;52.486;13.374;2023-10-19T16:05:17;7.90;98.70
3356;DHT22;1691;52.486;13.374;2023-10-19T16:07:45;7.80;98.70
3356;DHT22;1691;52.486;13.374;2023-10-19T16:10:13;7.90;98.70
3356;DHT22;1691;52.486;13.374;2023-10-19T16:12:41;7.90;98.70
3356;DHT22;1691;52.486;13.374;2023-10-19T16:15:10;7.90;98.70
3356;DHT22;1691;52.486;13.374;2023-10-19T16:17:39;7.90;98.70
3356;DHT22;1691;52.486;13.374;2023-10-19T16:20:08;7.90;98.70
3356;DHT22;1691;52.486;13.374;2023-10-19T16:22:42;7.90;98.70
3356;DHT22;1691;52.486;13.374;2023-10-19T16:25:11;7.90;98.70
3356;DHT22;1691;52.486;13.374;2023-10-19T16:27:38;7.90;98.70